sensor_id;sensor_type;location;lat;lon;timestamp;P1;durP1;ratioP1;P2;durP2;ratioP2
34204;SDS011;20471;49.680;20.074;2023-06-10T00:01:09;34.60;;;22.60;;
34204;SDS011;20471;49.680;20.074;2023-06-10T00:03:56;31.70;;;21.60;;
34204;SDS011;20471;49.680;20.074;2023-06-10T00:06:24;34.30;;;21.20;;
34204;SDS011;20471;49.680;20.074;2023-06-10T00:08:53;30.20;;;21.90;;
34204;SDS011;20471;49.680;20.074;2023-06-10T00:11:21;36.60;;;26.80;;
34204;SDS011;20471;49.680;20.074;2023-06-10T00:13:49;35.60;;;27.00;;
34204;SDS011;20471;49.680;20.074;2023-06-10T00:16:17;31.40;;;24.80;;
34204;SDS011;20471;49.680;20.074;2023-06-10T00:18:45;33.00;;;25.80;;
34204;SDS011;20471;49.680;20.074;2023-06-10T00:21:15;33.50;;;23.00;;
34204;SDS011;20471;49.680;20.074;2023-06-10T00:23:43;32.40;;;23.70;;
34204;SDS011;20471;49.680;20.074;2023-06-10T00:26:11;30.40;;;23.00;;
34204;SDS011;20471;49.680;20.074;2023-06-10T00:28:39;31.50;;;22.60;;
34204;SDS011;20471;49.680;20.074;2023-06-10T00:31:07;27.80;;;20.60;;
34204;SDS011;20471;49.680;20.074;2023-06-10T00:33:35;29.30;;;20.60;;
34204;SDS011;20471;49.680;20.074;2023-06-10T00:36:04;32.20;;;21.10;;
34204;SDS011;20471;49.680;20.074;2023-06-10T00:38:32;32.10;;;20.00;;
34204;SDS011;20471;49.680;20.074;2023-06-10T00:41:01;30.40;;;20.00;;
34204;SDS011;20471;49.680;20.074;2023-06-10T00:43:29;43.00;;;23.20;;
34204;SDS011;20471;49.680;20.074;2023-06-10T00:45:57;38.70;;;23.90;;
34204;SDS011;20471;49.680;20.074;2023-06-10T00:48:25;31.90;;;23.60;;
34204;SDS011;20471;49.680;20.074;2023-06-10T00:50:54;32.10;;;24.10;;
34204;SDS011;20471;49.680;20.074;2023-06-10T00:53:23;31.40;;;24.10;;
34204;SDS011;20471;49.680;20.074;2023-06-10T00:55:51;30.50;;;24.30;;
34204;SDS011;20471;49.680;20.074;2023-06-10T00:58:19;28.90;;;20.20;;
34204;SDS011;20471;49.680;20.074;2023-06-10T01:00:47;23.70;;;18.80;;
34204;SDS011;20471;49.680;20.074;2023-06-10T01:03:16;22.80;;;18.00;;
34204;SDS011;20471;49.680;20.074;2023-06-10T01:05:46;22.30;;;17.30;;
34204;SDS011;20471;49.680;20.074;2023-06-10T01:11:19;22.50;;;17.50;;
34204;SDS011;20471;49.680;20.074;2023-06-10T01:13:51;28.30;;;17.10;;
34204;SDS011;20471;49.680;20.074;2023-06-10T01:16:23;25.40;;;18.00;;
34204;SDS011;20471;49.680;20.074;2023-06-10T01:18:51;21.20;;;16.50;;
34204;SDS011;20471;49.680;20.074;2023-06-10T01:21:21;22.20;;;16.70;;
34204;SDS011;20471;49.680;20.074;2023-06-10T01:23:52;21.10;;;16.70;;
34204;SDS011;20471;49.680;20.074;2023-06-10T01:26:25;24.80;;;17.20;;
34204;SDS011;20471;49.680;20.074;2023-06-10T01:29:07;19.60;;;16.10;;
34204;SDS011;20471;49.680;20.074;2023-06-10T01:34:19;22.50;;;16.80;;
34204;SDS011;20471;49.680;20.074;2023-06-10T01:36:51;23.40;;;18.60;;
34204;SDS011;20471;49.680;20.074;2023-06-10T01:39:22;28.70;;;19.20;;
34204;SDS011;20471;49.680;20.074;2023-06-10T01:41:53;27.80;;;18.60;;
34204;SDS011;20471;49.680;20.074;2023-06-10T01:44:22;23.10;;;17.30;;
34204;SDS011;20471;49.680;20.074;2023-06-10T01:46:51;29.40;;;19.00;;
34204;SDS011;20471;49.680;20.074;2023-06-10T01:49:19;32.30;;;20.10;;
34204;SDS011;20471;49.680;20.074;2023-06-10T01:51:48;32.40;;;20.90;;
34204;SDS011;20471;49.680;20.074;2023-06-10T01:54:16;38.50;;;21.30;;
34204;SDS011;20471;49.680;20.074;2023-06-10T01:56:44;30.40;;;20.50;;
34204;SDS011;20471;49.680;20.074;2023-06-10T01:59:12;32.70;;;21.50;;
34204;SDS011;20471;49.680;20.074;2023-06-10T02:01:40;36.20;;;21.80;;
34204;SDS011;20471;49.680;20.074;2023-06-10T02:04:08;36.30;;;21.10;;
34204;SDS011;20471;49.680;20.074;2023-06-10T02:06:36;36.40;;;21.70;;
34204;SDS011;20471;49.680;20.074;2023-06-10T02:09:04;51.70;;;24.60;;
34204;SDS011;20471;49.680;20.074;2023-06-10T02:11:32;43.20;;;25.20;;
34204;SDS011;20471;49.680;20.074;2023-06-10T02:14:00;47.00;;;24.40;;
34204;SDS011;20471;49.680;20.074;2023-06-10T02:16:29;43.90;;;25.30;;
34204;SDS011;20471;49.680;20.074;2023-06-10T02:18:57;41.40;;;26.20;;
34204;SDS011;20471;49.680;20.074;2023-06-10T02:21:27;46.10;;;25.90;;
34204;SDS011;20471;49.680;20.074;2023-06-10T02:23:55;48.80;;;25.50;;
34204;SDS011;20471;49.680;20.074;2023-06-10T02:26:23;39.90;;;25.30;;
34204;SDS011;20471;49.680;20.074;2023-06-10T02:28:52;41.80;;;23.70;;
34204;SDS011;20471;49.680;20.074;2023-06-10T02:31:20;39.60;;;22.80;;
34204;SDS011;20471;49.680;20.074;2023-06-10T02:33:51;46.70;;;24.60;;
34204;SDS011;20471;49.680;20.074;2023-06-10T02:36:19;45.40;;;24.80;;
34204;SDS011;20471;49.680;20.074;2023-06-10T02:38:48;54.00;;;25.60;;
34204;SDS011;20471;49.680;20.074;2023-06-10T02:41:16;42.80;;;24.20;;
34204;SDS011;20471;49.680;20.074;2023-06-10T02:43:44;43.60;;;23.80;;
34204;SDS011;20471;49.680;20.074;2023-06-10T02:46:12;41.20;;;22.90;;
34204;SDS011;20471;49.680;20.074;2023-06-10T02:48:41;41.70;;;23.80;;
34204;SDS011;20471;49.680;20.074;2023-06-10T02:51:10;37.80;;;23.40;;
34204;SDS011;20471;49.680;20.074;2023-06-10T02:53:38;31.70;;;20.70;;
34204;SDS011;20471;49.680;20.074;2023-06-10T02:56:06;35.70;;;22.70;;
34204;SDS011;20471;49.680;20.074;2023-06-10T02:58:35;33.90;;;20.40;;
34204;SDS011;20471;49.680;20.074;2023-06-10T03:01:03;35.10;;;21.80;;
34204;SDS011;20471;49.680;20.074;2023-06-10T03:03:31;35.40;;;21.30;;
34204;SDS011;20471;49.680;20.074;2023-06-10T03:06:00;39.80;;;22.70;;
34204;SDS011;20471;49.680;20.074;2023-06-10T03:08:51;34.60;;;23.40;;
34204;SDS011;20471;49.680;20.074;2023-06-10T03:11:19;39.60;;;24.50;;
34204;SDS011;20471;49.680;20.074;2023-06-10T03:13:47;38.30;;;23.40;;
34204;SDS011;20471;49.680;20.074;2023-06-10T03:16:15;39.80;;;24.70;;
34204;SDS011;20471;49.680;20.074;2023-06-10T03:18:43;42.90;;;24.40;;
34204;SDS011;20471;49.680;20.074;2023-06-10T03:21:11;36.90;;;23.70;;
34204;SDS011;20471;49.680;20.074;2023-06-10T03:23:40;42.70;;;25.40;;
34204;SDS011;20471;49.680;20.074;2023-06-10T03:26:08;41.70;;;23.50;;
34204;SDS011;20471;49.680;20.074;2023-06-10T03:28:36;36.00;;;22.70;;
34204;SDS011;20471;49.680;20.074;2023-06-10T03:31:04;33.90;;;23.00;;
34204;SDS011;20471;49.680;20.074;2023-06-10T03:33:32;37.30;;;23.90;;
34204;SDS011;20471;49.680;20.074;2023-06-10T03:36:00;35.80;;;23.60;;
34204;SDS011;20471;49.680;20.074;2023-06-10T03:38:28;33.40;;;23.90;;
34204;SDS011;20471;49.680;20.074;2023-06-10T03:40:56;39.20;;;23.10;;
34204;SDS011;20471;49.680;20.074;2023-06-10T03:43:24;38.30;;;24.40;;
34204;SDS011;20471;49.680;20.074;2023-06-10T03:45:53;33.60;;;23.30;;
34204;SDS011;20471;49.680;20.074;2023-06-10T03:48:21;33.90;;;23.00;;
34204;SDS011;20471;49.680;20.074;2023-06-10T03:50:49;32.40;;;21.90;;
34204;SDS011;20471;49.680;20.074;2023-06-10T03:53:18;30.40;;;22.70;;
34204;SDS011;20471;49.680;20.074;2023-06-10T03:55:46;33.60;;;22.40;;
34204;SDS011;20471;49.680;20.074;2023-06-10T03:58:14;31.30;;;22.10;;
34204;SDS011;20471;49.680;20.074;2023-06-10T04:00:44;30.00;;;21.40;;
34204;SDS011;20471;49.680;20.074;2023-06-10T04:03:13;31.50;;;21.50;;
34204;SDS011;20471;49.680;20.074;2023-06-10T04:05:42;33.10;;;22.20;;
34204;SDS011;20471;49.680;20.074;2023-06-10T04:08:10;28.90;;;21.50;;
34204;SDS011;20471;49.680;20.074;2023-06-10T04:10:39;31.40;;;21.80;;
34204;SDS011;20471;49.680;20.074;2023-06-10T04:13:07;30.60;;;21.30;;
34204;SDS011;20471;49.680;20.074;2023-06-10T04:15:36;28.40;;;20.50;;
34204;SDS011;20471;49.680;20.074;2023-06-10T04:18:04;28.00;;;20.10;;
34204;SDS011;20471;49.680;20.074;2023-06-10T04:20:32;26.60;;;20.60;;
34204;SDS011;20471;49.680;20.074;2023-06-10T04:23:00;25.10;;;19.60;;
34204;SDS011;20471;49.680;20.074;2023-06-10T04:25:28;26.40;;;19.50;;
34204;SDS011;20471;49.680;20.074;2023-06-10T04:27:56;33.80;;;19.00;;
34204;SDS011;20471;49.680;20.074;2023-06-10T04:30:24;28.00;;;19.60;;
34204;SDS011;20471;49.680;20.074;2023-06-10T04:32:53;27.90;;;19.30;;
34204;SDS011;20471;49.680;20.074;2023-06-10T04:35:21;28.70;;;20.00;;
34204;SDS011;20471;49.680;20.074;2023-06-10T04:37:49;28.50;;;20.90;;
34204;SDS011;20471;49.680;20.074;2023-06-10T04:40:17;30.30;;;22.60;;
34204;SDS011;20471;49.680;20.074;2023-06-10T04:42:45;29.30;;;24.80;;
34204;SDS011;20471;49.680;20.074;2023-06-10T04:45:14;28.80;;;21.50;;
34204;SDS011;20471;49.680;20.074;2023-06-10T04:47:42;32.30;;;22.70;;
34204;SDS011;20471;49.680;20.074;2023-06-10T04:50:10;27.50;;;21.30;;
34204;SDS011;20471;49.680;20.074;2023-06-10T04:52:38;32.60;;;22.00;;
34204;SDS011;20471;49.680;20.074;2023-06-10T04:55:08;26.90;;;20.20;;
34204;SDS011;20471;49.680;20.074;2023-06-10T04:57:36;29.00;;;19.70;;
34204;SDS011;20471;49.680;20.074;2023-06-10T05:00:04;26.30;;;19.40;;
34204;SDS011;20471;49.680;20.074;2023-06-10T05:02:33;25.50;;;18.60;;
34204;SDS011;20471;49.680;20.074;2023-06-10T05:05:01;24.00;;;18.20;;
34204;SDS011;20471;49.680;20.074;2023-06-10T05:07:29;24.00;;;18.60;;
34204;SDS011;20471;49.680;20.074;2023-06-10T05:09:58;28.60;;;18.10;;
34204;SDS011;20471;49.680;20.074;2023-06-10T05:12:26;22.30;;;17.30;;
34204;SDS011;20471;49.680;20.074;2023-06-10T05:14:54;23.10;;;18.50;;
34204;SDS011;20471;49.680;20.074;2023-06-10T05:17:23;26.90;;;18.10;;
34204;SDS011;20471;49.680;20.074;2023-06-10T05:19:51;24.00;;;17.90;;
34204;SDS011;20471;49.680;20.074;2023-06-10T05:22:19;22.10;;;18.40;;
34204;SDS011;20471;49.680;20.074;2023-06-10T05:24:50;24.10;;;18.80;;
34204;SDS011;20471;49.680;20.074;2023-06-10T05:27:19;24.70;;;19.40;;
34204;SDS011;20471;49.680;20.074;2023-06-10T05:29:47;24.20;;;19.20;;
34204;SDS011;20471;49.680;20.074;2023-06-10T05:32:15;25.80;;;19.10;;
34204;SDS011;20471;49.680;20.074;2023-06-10T05:34:44;23.80;;;20.30;;
34204;SDS011;20471;49.680;20.074;2023-06-10T05:37:12;26.60;;;19.40;;
34204;SDS011;20471;49.680;20.074;2023-06-10T05:39:41;25.70;;;20.30;;
34204;SDS011;20471;49.680;20.074;2023-06-10T05:42:09;26.00;;;20.20;;
34204;SDS011;20471;49.680;20.074;2023-06-10T05:44:37;25.80;;;20.40;;
34204;SDS011;20471;49.680;20.074;2023-06-10T05:47:05;27.40;;;20.50;;
34204;SDS011;20471;49.680;20.074;2023-06-10T05:49:33;31.10;;;21.30;;
34204;SDS011;20471;49.680;20.074;2023-06-10T05:52:02;30.10;;;21.60;;
34204;SDS011;20471;49.680;20.074;2023-06-10T05:54:30;28.00;;;22.50;;
34204;SDS011;20471;49.680;20.074;2023-06-10T05:56:58;31.00;;;23.50;;
34204;SDS011;20471;49.680;20.074;2023-06-10T05:59:26;30.30;;;23.20;;
34204;SDS011;20471;49.680;20.074;2023-06-10T06:01:54;35.20;;;24.40;;
34204;SDS011;20471;49.680;20.074;2023-06-10T06:04:23;30.60;;;21.50;;
34204;SDS011;20471;49.680;20.074;2023-06-10T06:06:51;24.40;;;19.40;;
34204;SDS011;20471;49.680;20.074;2023-06-10T06:09:19;30.70;;;20.60;;
34204;SDS011;20471;49.680;20.074;2023-06-10T06:11:47;26.40;;;19.50;;
34204;SDS011;20471;49.680;20.074;2023-06-10T06:14:15;25.80;;;19.00;;
34204;SDS011;20471;49.680;20.074;2023-06-10T06:16:43;24.30;;;18.00;;
34204;SDS011;20471;49.680;20.074;2023-06-10T06:19:11;22.20;;;17.90;;
34204;SDS011;20471;49.680;20.074;2023-06-10T06:21:39;20.60;;;17.60;;
34204;SDS011;20471;49.680;20.074;2023-06-10T06:24:08;26.10;;;19.90;;
34204;SDS011;20471;49.680;20.074;2023-06-10T06:26:36;21.40;;;16.90;;
34204;SDS011;20471;49.680;20.074;2023-06-10T06:29:04;26.20;;;19.30;;
34204;SDS011;20471;49.680;20.074;2023-06-10T06:31:32;22.10;;;16.90;;
34204;SDS011;20471;49.680;20.074;2023-06-10T06:34:00;23.20;;;17.30;;
34204;SDS011;20471;49.680;20.074;2023-06-10T06:36:28;20.90;;;16.40;;
34204;SDS011;20471;49.680;20.074;2023-06-10T06:38:56;21.70;;;17.00;;
34204;SDS011;20471;49.680;20.074;2023-06-10T06:41:27;19.80;;;15.20;;
34204;SDS011;20471;49.680;20.074;2023-06-10T06:43:56;25.30;;;18.10;;
34204;SDS011;20471;49.680;20.074;2023-06-10T06:46:24;21.90;;;16.30;;
34204;SDS011;20471;49.680;20.074;2023-06-10T06:48:52;21.40;;;16.70;;
34204;SDS011;20471;49.680;20.074;2023-06-10T06:51:20;20.50;;;15.90;;
34204;SDS011;20471;49.680;20.074;2023-06-10T06:53:48;19.20;;;15.90;;
34204;SDS011;20471;49.680;20.074;2023-06-10T06:56:17;19.10;;;15.50;;
34204;SDS011;20471;49.680;20.074;2023-06-10T06:58:45;20.70;;;16.70;;
34204;SDS011;20471;49.680;20.074;2023-06-10T07:01:13;19.20;;;15.70;;
34204;SDS011;20471;49.680;20.074;2023-06-10T07:03:41;20.10;;;16.00;;
34204;SDS011;20471;49.680;20.074;2023-06-10T07:06:10;21.70;;;17.00;;
34204;SDS011;20471;49.680;20.074;2023-06-10T07:08:38;19.70;;;15.90;;
34204;SDS011;20471;49.680;20.074;2023-06-10T07:11:06;22.10;;;16.80;;
34204;SDS011;20471;49.680;20.074;2023-06-10T07:13:34;21.50;;;16.80;;
34204;SDS011;20471;49.680;20.074;2023-06-10T07:16:03;21.40;;;16.90;;
34204;SDS011;20471;49.680;20.074;2023-06-10T07:18:31;25.70;;;17.00;;
34204;SDS011;20471;49.680;20.074;2023-06-10T07:20:59;41.10;;;22.70;;
34204;SDS011;20471;49.680;20.074;2023-06-10T07:23:28;52.60;;;29.30;;
34204;SDS011;20471;49.680;20.074;2023-06-10T07:25:56;29.80;;;18.40;;
34204;SDS011;20471;49.680;20.074;2023-06-10T07:28:24;23.00;;;16.70;;
34204;SDS011;20471;49.680;20.074;2023-06-10T07:30:53;19.20;;;13.10;;
34204;SDS011;20471;49.680;20.074;2023-06-10T07:33:21;16.70;;;12.80;;
34204;SDS011;20471;49.680;20.074;2023-06-10T07:35:49;14.60;;;12.50;;
34204;SDS011;20471;49.680;20.074;2023-06-10T07:38:17;16.00;;;12.50;;
34204;SDS011;20471;49.680;20.074;2023-06-10T07:40:45;16.90;;;14.60;;
34204;SDS011;20471;49.680;20.074;2023-06-10T07:43:14;21.60;;;15.70;;
34204;SDS011;20471;49.680;20.074;2023-06-10T07:45:42;19.10;;;14.70;;
34204;SDS011;20471;49.680;20.074;2023-06-10T07:48:11;20.20;;;15.70;;
34204;SDS011;20471;49.680;20.074;2023-06-10T07:50:39;20.70;;;16.60;;
34204;SDS011;20471;49.680;20.074;2023-06-10T07:53:07;23.30;;;18.40;;
34204;SDS011;20471;49.680;20.074;2023-06-10T07:55:35;24.40;;;18.30;;
34204;SDS011;20471;49.680;20.074;2023-06-10T07:58:03;21.00;;;17.80;;
34204;SDS011;20471;49.680;20.074;2023-06-10T08:00:31;25.40;;;19.60;;
34204;SDS011;20471;49.680;20.074;2023-06-10T08:02:59;22.60;;;18.30;;
34204;SDS011;20471;49.680;20.074;2023-06-10T08:05:28;24.80;;;19.10;;
34204;SDS011;20471;49.680;20.074;2023-06-10T08:07:56;21.60;;;17.10;;
34204;SDS011;20471;49.680;20.074;2023-06-10T08:10:25;22.60;;;16.40;;
34204;SDS011;20471;49.680;20.074;2023-06-10T08:12:53;20.40;;;15.00;;
34204;SDS011;20471;49.680;20.074;2023-06-10T08:15:21;20.60;;;14.60;;
34204;SDS011;20471;49.680;20.074;2023-06-10T08:17:50;17.20;;;13.70;;
34204;SDS011;20471;49.680;20.074;2023-06-10T08:20:18;16.70;;;13.20;;
34204;SDS011;20471;49.680;20.074;2023-06-10T08:22:46;18.40;;;12.60;;
34204;SDS011;20471;49.680;20.074;2023-06-10T08:25:14;19.80;;;13.70;;
34204;SDS011;20471;49.680;20.074;2023-06-10T08:27:42;13.90;;;12.30;;
34204;SDS011;20471;49.680;20.074;2023-06-10T08:30:11;15.50;;;12.50;;
34204;SDS011;20471;49.680;20.074;2023-06-10T08:32:39;13.30;;;11.60;;
34204;SDS011;20471;49.680;20.074;2023-06-10T08:35:08;13.90;;;11.20;;
34204;SDS011;20471;49.680;20.074;2023-06-10T08:37:36;13.70;;;10.90;;
34204;SDS011;20471;49.680;20.074;2023-06-10T08:40:04;14.30;;;11.50;;
34204;SDS011;20471;49.680;20.074;2023-06-10T08:42:35;15.80;;;10.60;;
34204;SDS011;20471;49.680;20.074;2023-06-10T08:48:04;11.90;;;10.70;;
34204;SDS011;20471;49.680;20.074;2023-06-10T08:50:34;13.60;;;10.90;;
34204;SDS011;20471;49.680;20.074;2023-06-10T08:53:06;14.40;;;11.20;;
34204;SDS011;20471;49.680;20.074;2023-06-10T08:55:36;15.90;;;11.50;;
34204;SDS011;20471;49.680;20.074;2023-06-10T08:58:05;14.90;;;10.80;;
34204;SDS011;20471;49.680;20.074;2023-06-10T09:00:34;17.90;;;12.50;;
34204;SDS011;20471;49.680;20.074;2023-06-10T09:03:04;16.50;;;12.40;;
34204;SDS011;20471;49.680;20.074;2023-06-10T09:05:35;15.20;;;12.40;;
34204;SDS011;20471;49.680;20.074;2023-06-10T09:08:07;18.40;;;13.20;;
34204;SDS011;20471;49.680;20.074;2023-06-10T09:10:36;19.20;;;12.80;;
34204;SDS011;20471;49.680;20.074;2023-06-10T09:13:04;17.20;;;14.20;;
34204;SDS011;20471;49.680;20.074;2023-06-10T09:15:33;18.90;;;13.90;;
34204;SDS011;20471;49.680;20.074;2023-06-10T09:18:01;19.50;;;14.80;;
34204;SDS011;20471;49.680;20.074;2023-06-10T09:20:31;17.80;;;15.20;;
34204;SDS011;20471;49.680;20.074;2023-06-10T09:22:59;18.70;;;15.70;;
34204;SDS011;20471;49.680;20.074;2023-06-10T09:25:38;18.90;;;16.40;;
34204;SDS011;20471;49.680;20.074;2023-06-10T09:28:12;22.90;;;17.20;;
34204;SDS011;20471;49.680;20.074;2023-06-10T09:30:41;23.10;;;18.40;;
34204;SDS011;20471;49.680;20.074;2023-06-10T09:33:10;21.80;;;18.10;;
34204;SDS011;20471;49.680;20.074;2023-06-10T09:35:46;22.20;;;19.10;;
34204;SDS011;20471;49.680;20.074;2023-06-10T09:38:21;23.50;;;19.30;;
34204;SDS011;20471;49.680;20.074;2023-06-10T09:40:53;21.40;;;18.80;;
34204;SDS011;20471;49.680;20.074;2023-06-10T09:43:22;20.50;;;17.80;;
34204;SDS011;20471;49.680;20.074;2023-06-10T09:45:52;18.30;;;16.40;;
34204;SDS011;20471;49.680;20.074;2023-06-10T09:48:24;18.30;;;16.40;;
34204;SDS011;20471;49.680;20.074;2023-06-10T09:50:53;19.80;;;17.70;;
34204;SDS011;20471;49.680;20.074;2023-06-10T09:53:21;18.40;;;16.40;;
34204;SDS011;20471;49.680;20.074;2023-06-10T09:55:50;23.00;;;16.90;;
34204;SDS011;20471;49.680;20.074;2023-06-10T09:58:33;20.00;;;16.70;;
34204;SDS011;20471;49.680;20.074;2023-06-10T10:03:46;17.80;;;15.80;;
34204;SDS011;20471;49.680;20.074;2023-06-10T10:06:18;19.00;;;16.70;;
34204;SDS011;20471;49.680;20.074;2023-06-10T10:08:49;15.60;;;14.00;;
34204;SDS011;20471;49.680;20.074;2023-06-10T10:11:19;15.20;;;13.50;;
34204;SDS011;20471;49.680;20.074;2023-06-10T10:13:51;15.50;;;13.80;;
34204;SDS011;20471;49.680;20.074;2023-06-10T10:16:21;13.90;;;12.40;;
34204;SDS011;20471;49.680;20.074;2023-06-10T10:19:08;15.60;;;12.20;;
34204;SDS011;20471;49.680;20.074;2023-06-10T10:21:52;13.20;;;11.70;;
34204;SDS011;20471;49.680;20.074;2023-06-10T10:24:26;13.60;;;12.10;;
34204;SDS011;20471;49.680;20.074;2023-06-10T10:27:01;12.30;;;11.20;;
34204;SDS011;20471;49.680;20.074;2023-06-10T10:29:38;14.20;;;11.90;;
34204;SDS011;20471;49.680;20.074;2023-06-10T10:32:07;13.20;;;11.90;;
34204;SDS011;20471;49.680;20.074;2023-06-10T10:35:03;13.40;;;11.90;;
34204;SDS011;20471;49.680;20.074;2023-06-10T10:37:40;13.80;;;11.70;;
34204;SDS011;20471;49.680;20.074;2023-06-10T10:40:09;15.10;;;11.50;;
34204;SDS011;20471;49.680;20.074;2023-06-10T10:42:39;12.90;;;11.40;;
34204;SDS011;20471;49.680;20.074;2023-06-10T10:45:09;13.20;;;11.00;;
34204;SDS011;20471;49.680;20.074;2023-06-10T10:47:38;14.80;;;10.90;;
34204;SDS011;20471;49.680;20.074;2023-06-10T10:50:16;11.70;;;10.50;;
34204;SDS011;20471;49.680;20.074;2023-06-10T10:53:07;11.90;;;10.30;;
34204;SDS011;20471;49.680;20.074;2023-06-10T10:55:34;13.80;;;10.40;;
34204;SDS011;20471;49.680;20.074;2023-06-10T10:58:06;13.60;;;10.00;;
34204;SDS011;20471;49.680;20.074;2023-06-10T11:00:42;12.10;;;10.10;;
34204;SDS011;20471;49.680;20.074;2023-06-10T11:03:13;12.00;;;10.00;;
34204;SDS011;20471;49.680;20.074;2023-06-10T11:05:45;9.50;;;8.60;;
34204;SDS011;20471;49.680;20.074;2023-06-10T11:08:45;10.20;;;8.90;;
34204;SDS011;20471;49.680;20.074;2023-06-10T11:14:25;9.90;;;8.90;;
34204;SDS011;20471;49.680;20.074;2023-06-10T11:16:58;9.90;;;8.80;;
34204;SDS011;20471;49.680;20.074;2023-06-10T11:19:37;12.60;;;9.00;;
34204;SDS011;20471;49.680;20.074;2023-06-10T11:22:07;10.10;;;8.90;;
34204;SDS011;20471;49.680;20.074;2023-06-10T11:24:36;10.60;;;8.30;;
34204;SDS011;20471;49.680;20.074;2023-06-10T11:27:15;8.80;;;7.80;;
34204;SDS011;20471;49.680;20.074;2023-06-10T11:32:31;13.40;;;8.70;;
34204;SDS011;20471;49.680;20.074;2023-06-10T11:35:04;11.30;;;8.20;;
34204;SDS011;20471;49.680;20.074;2023-06-10T11:37:33;9.10;;;8.10;;
34204;SDS011;20471;49.680;20.074;2023-06-10T11:40:01;11.80;;;8.20;;
34204;SDS011;20471;49.680;20.074;2023-06-10T11:42:30;9.40;;;7.80;;
34204;SDS011;20471;49.680;20.074;2023-06-10T11:44:59;12.10;;;7.60;;
34204;SDS011;20471;49.680;20.074;2023-06-10T11:47:29;10.30;;;8.00;;
34204;SDS011;20471;49.680;20.074;2023-06-10T11:49:57;8.80;;;7.90;;
34204;SDS011;20471;49.680;20.074;2023-06-10T11:52:29;8.40;;;7.50;;
34204;SDS011;20471;49.680;20.074;2023-06-10T11:55:00;8.50;;;6.80;;
34204;SDS011;20471;49.680;20.074;2023-06-10T11:57:29;9.00;;;7.30;;
34204;SDS011;20471;49.680;20.074;2023-06-10T12:00:00;8.90;;;7.30;;
34204;SDS011;20471;49.680;20.074;2023-06-10T12:02:32;10.20;;;7.60;;
34204;SDS011;20471;49.680;20.074;2023-06-10T12:05:11;12.50;;;7.90;;
34204;SDS011;20471;49.680;20.074;2023-06-10T12:07:40;8.70;;;7.80;;
34204;SDS011;20471;49.680;20.074;2023-06-10T12:10:08;9.40;;;7.70;;
34204;SDS011;20471;49.680;20.074;2023-06-10T12:12:36;11.30;;;7.10;;
34204;SDS011;20471;49.680;20.074;2023-06-10T12:15:05;11.60;;;7.90;;
34204;SDS011;20471;49.680;20.074;2023-06-10T12:20:04;11.10;;;6.20;;
34204;SDS011;20471;49.680;20.074;2023-06-10T12:22:41;6.80;;;5.40;;
34204;SDS011;20471;49.680;20.074;2023-06-10T12:25:11;7.30;;;4.50;;
34204;SDS011;20471;49.680;20.074;2023-06-10T12:27:49;4.30;;;3.90;;
34204;SDS011;20471;49.680;20.074;2023-06-10T12:30:19;4.80;;;4.30;;
34204;SDS011;20471;49.680;20.074;2023-06-10T12:32:49;4.20;;;3.80;;
34204;SDS011;20471;49.680;20.074;2023-06-10T12:35:19;6.30;;;5.50;;
34204;SDS011;20471;49.680;20.074;2023-06-10T12:40:28;9.00;;;6.90;;
34204;SDS011;20471;49.680;20.074;2023-06-10T12:42:58;10.50;;;9.10;;
34204;SDS011;20471;49.680;20.074;2023-06-10T12:50:51;10.40;;;9.30;;
34204;SDS011;20471;49.680;20.074;2023-06-10T12:53:21;10.10;;;9.10;;
34204;SDS011;20471;49.680;20.074;2023-06-10T12:55:50;11.10;;;10.10;;
34204;SDS011;20471;49.680;20.074;2023-06-10T12:58:19;12.00;;;10.10;;
34204;SDS011;20471;49.680;20.074;2023-06-10T13:00:48;10.30;;;9.20;;
34204;SDS011;20471;49.680;20.074;2023-06-10T13:03:19;11.60;;;9.90;;
34204;SDS011;20471;49.680;20.074;2023-06-10T13:05:47;13.10;;;10.00;;
34204;SDS011;20471;49.680;20.074;2023-06-10T13:08:15;13.30;;;10.30;;
34204;SDS011;20471;49.680;20.074;2023-06-10T13:10:44;11.80;;;10.70;;
34204;SDS011;20471;49.680;20.074;2023-06-10T13:13:12;10.90;;;9.80;;
34204;SDS011;20471;49.680;20.074;2023-06-10T13:15:41;13.20;;;11.50;;
34204;SDS011;20471;49.680;20.074;2023-06-10T13:18:09;10.30;;;9.30;;
34204;SDS011;20471;49.680;20.074;2023-06-10T13:20:38;10.70;;;9.70;;
34204;SDS011;20471;49.680;20.074;2023-06-10T13:23:07;9.90;;;8.90;;
34204;SDS011;20471;49.680;20.074;2023-06-10T13:25:35;9.60;;;8.70;;
34204;SDS011;20471;49.680;20.074;2023-06-10T13:28:03;9.70;;;8.80;;
34204;SDS011;20471;49.680;20.074;2023-06-10T13:30:31;9.30;;;8.50;;
34204;SDS011;20471;49.680;20.074;2023-06-10T13:32:59;9.70;;;8.70;;
34204;SDS011;20471;49.680;20.074;2023-06-10T13:35:28;9.90;;;9.00;;
34204;SDS011;20471;49.680;20.074;2023-06-10T13:37:56;10.30;;;8.60;;
34204;SDS011;20471;49.680;20.074;2023-06-10T13:40:24;9.60;;;8.70;;
34204;SDS011;20471;49.680;20.074;2023-06-10T13:42:52;8.70;;;7.90;;
34204;SDS011;20471;49.680;20.074;2023-06-10T13:45:21;10.20;;;9.20;;
34204;SDS011;20471;49.680;20.074;2023-06-10T13:47:49;12.20;;;8.60;;
34204;SDS011;20471;49.680;20.074;2023-06-10T13:50:17;10.20;;;9.20;;
34204;SDS011;20471;49.680;20.074;2023-06-10T13:52:45;10.90;;;9.10;;
34204;SDS011;20471;49.680;20.074;2023-06-10T13:55:13;10.20;;;9.10;;
34204;SDS011;20471;49.680;20.074;2023-06-10T13:57:43;11.60;;;10.50;;
34204;SDS011;20471;49.680;20.074;2023-06-10T14:00:11;15.20;;;12.30;;
34204;SDS011;20471;49.680;20.074;2023-06-10T14:02:40;18.40;;;13.80;;
34204;SDS011;20471;49.680;20.074;2023-06-10T14:05:08;14.10;;;12.20;;
34204;SDS011;20471;49.680;20.074;2023-06-10T14:07:36;13.00;;;11.40;;
34204;SDS011;20471;49.680;20.074;2023-06-10T14:10:06;11.50;;;10.40;;
34204;SDS011;20471;49.680;20.074;2023-06-10T14:12:36;15.00;;;11.00;;
34204;SDS011;20471;49.680;20.074;2023-06-10T14:15:04;12.70;;;10.70;;
34204;SDS011;20471;49.680;20.074;2023-06-10T14:17:33;11.20;;;10.10;;
34204;SDS011;20471;49.680;20.074;2023-06-10T14:20:01;11.20;;;10.10;;
34204;SDS011;20471;49.680;20.074;2023-06-10T14:22:30;11.30;;;10.20;;
34204;SDS011;20471;49.680;20.074;2023-06-10T14:24:58;10.90;;;9.80;;
34204;SDS011;20471;49.680;20.074;2023-06-10T14:27:27;11.70;;;10.30;;
34204;SDS011;20471;49.680;20.074;2023-06-10T14:29:55;11.80;;;9.30;;
34204;SDS011;20471;49.680;20.074;2023-06-10T14:32:23;12.10;;;10.90;;
34204;SDS011;20471;49.680;20.074;2023-06-10T14:34:51;12.90;;;11.60;;
34204;SDS011;20471;49.680;20.074;2023-06-10T14:37:19;15.10;;;10.80;;
34204;SDS011;20471;49.680;20.074;2023-06-10T14:39:48;11.60;;;10.50;;
34204;SDS011;20471;49.680;20.074;2023-06-10T14:42:16;11.10;;;10.10;;
34204;SDS011;20471;49.680;20.074;2023-06-10T14:44:44;11.60;;;10.40;;
34204;SDS011;20471;49.680;20.074;2023-06-10T14:47:13;15.10;;;10.30;;
34204;SDS011;20471;49.680;20.074;2023-06-10T14:49:41;13.30;;;9.60;;
34204;SDS011;20471;49.680;20.074;2023-06-10T14:52:10;13.20;;;11.10;;